createdAt,value
2018-07-17T00:00:08.180Z,3.80
2018-07-17T00:02:37.308Z,4.23
2018-07-17T00:05:07.680Z,4.20
2018-07-17T00:07:37.031Z,4.13
2018-07-17T00:10:06.563Z,3.90
2018-07-17T00:12:35.626Z,3.77
2018-07-17T00:15:04.971Z,4.50
2018-07-17T00:17:34.740Z,4.20
2018-07-17T00:20:03.828Z,4.27
2018-07-17T00:22:32.900Z,4.60
2018-07-17T00:25:01.984Z,3.87
2018-07-17T00:27:31.048Z,4.27
2018-07-17T00:30:00.129Z,4.73
2018-07-17T00:32:29.184Z,3.80
2018-07-17T00:34:58.285Z,4.60
2018-07-17T00:37:27.348Z,4.60
2018-07-17T00:39:56.468Z,4.47
2018-07-17T00:42:25.548Z,4.90
2018-07-17T00:44:54.621Z,4.73
2018-07-17T00:47:23.717Z,4.83
2018-07-17T00:49:52.776Z,4.53
2018-07-17T00:52:21.884Z,4.30
2018-07-17T00:54:50.948Z,4.47
2018-07-17T00:57:20.056Z,3.73
2018-07-17T00:59:49.152Z,4.20
2018-07-17T01:02:23.744Z,4.40
2018-07-17T01:04:58.108Z,3.80
2018-07-17T01:07:32.448Z,4.80
2018-07-17T01:10:06.836Z,4.50
2018-07-17T01:12:35.127Z,4.80
2018-07-17T01:15:07.368Z,4.13
2018-07-17T01:17:37.119Z,4.00
2018-07-17T01:20:06.400Z,3.90
2018-07-17T01:22:35.513Z,4.77
2018-07-17T01:25:04.643Z,4.70
2018-07-17T01:27:33.724Z,3.70
2018-07-17T01:30:02.789Z,4.23
2018-07-17T01:32:31.888Z,5.40
2018-07-17T01:35:00.996Z,4.20
2018-07-17T01:37:30.088Z,4.63
2018-07-17T01:39:59.163Z,4.17
2018-07-17T01:42:28.272Z,4.20
2018-07-17T01:44:57.333Z,3.67
2018-07-17T01:47:26.441Z,4.37
2018-07-17T01:49:55.532Z,4.07
2018-07-17T01:52:24.615Z,3.87
2018-07-17T01:54:53.684Z,4.30
2018-07-17T01:57:22.786Z,4.47
2018-07-17T01:59:51.867Z,4.20
2018-07-17T02:02:20.939Z,4.00
2018-07-17T02:04:50.069Z,4.00
2018-07-17T02:07:19.110Z,4.10
2018-07-17T02:09:48.188Z,4.53
2018-07-17T02:12:17.279Z,4.80
2018-07-17T02:14:46.387Z,5.33
2018-07-17T02:17:15.452Z,4.47
2018-07-17T02:19:44.559Z,5.50
2018-07-17T02:22:13.787Z,5.50
2018-07-17T02:24:42.872Z,4.93
2018-07-17T02:27:11.956Z,4.70
2018-07-17T02:29:41.036Z,4.80
2018-07-17T02:32:10.108Z,5.23
2018-07-17T02:34:39.196Z,4.90
2018-07-17T02:37:08.260Z,5.07
2018-07-17T02:39:37.362Z,5.60
2018-07-17T02:42:06.842Z,4.97
2018-07-17T02:44:35.940Z,5.10
2018-07-17T02:47:05.041Z,5.10
2018-07-17T02:49:34.152Z,5.43
2018-07-17T02:52:03.217Z,4.80
2018-07-17T02:54:32.316Z,4.97
2018-07-17T02:57:01.391Z,4.93
2018-07-17T02:59:30.500Z,5.53
2018-07-17T03:01:59.569Z,4.90
2018-07-17T03:04:28.661Z,4.90
2018-07-17T03:06:57.728Z,5.20
2018-07-17T03:09:26.820Z,4.87
2018-07-17T03:11:55.876Z,4.90
2018-07-17T03:14:24.991Z,5.53
2018-07-17T03:16:54.049Z,5.17
2018-07-17T03:19:23.149Z,4.53
2018-07-17T03:21:52.259Z,5.70
2018-07-17T03:24:21.324Z,5.80
2018-07-17T03:26:50.443Z,5.47
2018-07-17T03:29:19.535Z,5.60
2018-07-17T03:31:48.637Z,5.03
2018-07-17T03:34:17.723Z,5.20
2018-07-17T03:36:46.808Z,5.15
2018-07-17T03:39:15.876Z,4.70
2018-07-17T03:41:44.972Z,4.73
2018-07-17T03:44:14.076Z,5.65
2018-07-17T03:46:43.165Z,5.60
2018-07-17T03:49:12.232Z,4.57
2018-07-17T03:51:41.320Z,5.33
2018-07-17T03:54:10.408Z,5.40
2018-07-17T03:56:39.516Z,5.17
2018-07-17T03:59:08.604Z,6.00
2018-07-17T04:01:37.723Z,5.67
2018-07-17T04:04:06.786Z,4.87
2018-07-17T04:06:35.891Z,5.63
2018-07-17T04:09:06.356Z,5.30
2018-07-17T04:11:35.443Z,5.57
2018-07-17T04:14:04.548Z,5.47
2018-07-17T04:16:33.640Z,4.90
2018-07-17T04:19:02.731Z,5.78
2018-07-17T04:21:31.832Z,5.77
2018-07-17T04:24:00.908Z,6.37
2018-07-17T04:26:30.009Z,5.63
2018-07-17T04:28:59.752Z,6.30
2018-07-17T04:31:28.879Z,6.33
2018-07-17T04:33:57.948Z,6.00
2018-07-17T04:36:27.052Z,6.40
2018-07-17T04:38:56.167Z,6.47
2018-07-17T04:41:25.292Z,6.23
2018-07-17T04:43:54.380Z,7.00
2018-07-17T04:46:23.481Z,6.60
2018-07-17T04:48:52.603Z,6.50
2018-07-17T04:51:21.676Z,6.83
2018-07-17T04:53:50.968Z,6.25
2018-07-17T04:56:19.992Z,5.97
2018-07-17T04:58:49.672Z,7.00
2018-07-17T05:01:18.840Z,7.00
2018-07-17T05:03:47.951Z,6.37
2018-07-17T05:06:17.033Z,8.13
2018-07-17T05:08:46.149Z,7.10
2018-07-17T05:11:15.584Z,7.70
2018-07-17T05:13:44.752Z,6.95
2018-07-17T05:16:13.874Z,6.40
2018-07-17T05:18:43.008Z,6.53
2018-07-17T05:21:12.149Z,7.60
2018-07-17T05:23:41.217Z,7.08
2018-07-17T05:26:10.288Z,5.87
2018-07-17T05:28:39.392Z,6.77
2018-07-17T05:31:08.488Z,6.75
2018-07-17T05:33:37.593Z,8.30
2018-07-17T05:36:07.123Z,7.23
2018-07-17T05:38:36.206Z,7.37
2018-07-17T05:41:05.304Z,8.23
2018-07-17T05:43:34.399Z,8.43
2018-07-17T05:46:03.508Z,10.10
2018-07-17T05:48:32.591Z,7.40
2018-07-17T05:51:01.707Z,8.80
2018-07-17T05:53:30.792Z,9.35
2018-07-17T05:55:59.895Z,9.37
2018-07-17T05:58:29.023Z,9.15
2018-07-17T06:00:58.120Z,10.40
2018-07-17T06:03:27.339Z,11.00
2018-07-17T06:05:56.375Z,10.70
2018-07-17T06:08:26.279Z,9.60
2018-07-17T06:10:55.380Z,11.50
2018-07-17T06:13:24.488Z,11.60
2018-07-17T06:15:53.622Z,9.97
2018-07-17T06:18:22.671Z,10.70
2018-07-17T06:20:51.785Z,10.18
2018-07-17T06:23:20.867Z,9.30
2018-07-17T06:25:49.981Z,10.85
2018-07-17T06:28:19.056Z,10.70
2018-07-17T06:30:48.175Z,10.37
2018-07-17T06:33:17.538Z,10.30
2018-07-17T06:35:46.692Z,10.50
2018-07-17T06:38:15.787Z,12.10
2018-07-17T06:40:44.879Z,9.40
2018-07-17T06:43:13.961Z,10.13
2018-07-17T06:45:43.068Z,10.70
2018-07-17T06:48:12.160Z,10.80
2018-07-17T06:50:41.346Z,9.60
2018-07-17T06:53:10.462Z,9.70
2018-07-17T06:55:39.568Z,9.63
2018-07-17T06:58:09.517Z,8.90
2018-07-17T07:00:39.455Z,9.77
2018-07-17T07:03:08.594Z,9.93
2018-07-17T07:05:37.725Z,10.27
2018-07-17T07:08:06.874Z,10.57
2018-07-17T07:10:35.970Z,8.73
2018-07-17T07:13:05.131Z,9.43
2018-07-17T07:15:34.232Z,10.03
2018-07-17T07:18:03.384Z,9.10
2018-07-17T07:20:32.483Z,9.10
2018-07-17T07:23:01.614Z,8.67
2018-07-17T07:25:30.736Z,8.10
2018-07-17T07:27:59.904Z,8.23
2018-07-17T07:30:28.998Z,8.20
2018-07-17T07:32:58.128Z,8.57
2018-07-17T07:35:27.228Z,7.00
2018-07-17T07:37:56.356Z,6.80
2018-07-17T07:40:25.492Z,7.90
2018-07-17T07:42:54.701Z,6.90
2018-07-17T07:45:23.753Z,6.77
2018-07-17T07:47:53.740Z,6.50
2018-07-17T07:50:22.836Z,6.83
2018-07-17T07:52:51.974Z,7.30
2018-07-17T07:55:21.092Z,7.47
2018-07-17T07:57:50.569Z,7.60
2018-07-17T08:00:19.676Z,6.45
2018-07-17T08:02:48.788Z,7.58
2018-07-17T08:05:17.877Z,7.28
2018-07-17T08:07:47.015Z,6.73
2018-07-17T08:10:16.127Z,6.27
2018-07-17T08:12:45.197Z,6.60
2018-07-17T08:15:14.338Z,7.10
2018-07-17T08:17:43.911Z,5.93
2018-07-17T08:20:13.011Z,5.43
2018-07-17T08:22:42.135Z,5.07
2018-07-17T08:25:11.225Z,5.83
2018-07-17T08:27:40.317Z,5.58
2018-07-17T08:30:09.423Z,4.53
2018-07-17T08:32:38.515Z,5.72
2018-07-17T08:35:07.616Z,4.90
2018-07-17T08:37:36.696Z,5.45
2018-07-17T08:40:05.828Z,5.70
2018-07-17T08:42:34.922Z,5.60
2018-07-17T08:45:04.051Z,5.10
2018-07-17T08:47:33.135Z,5.50
2018-07-17T08:50:02.237Z,4.83
2018-07-17T08:52:31.328Z,4.80
2018-07-17T08:55:00.464Z,4.12
2018-07-17T08:57:29.555Z,4.47
2018-07-17T08:59:58.782Z,4.20
2018-07-17T09:02:27.861Z,4.27
2018-07-17T09:04:56.955Z,4.37
2018-07-17T09:07:26.049Z,4.33
2018-07-17T09:09:55.399Z,3.70
2018-07-17T09:12:24.536Z,3.45
2018-07-17T09:14:53.648Z,3.90
2018-07-17T09:17:22.720Z,3.70
2018-07-17T09:19:51.839Z,3.60
2018-07-17T09:22:20.915Z,3.70
2018-07-17T09:24:50.012Z,4.13
2018-07-17T09:27:19.116Z,3.63
2018-07-17T09:29:48.241Z,3.30
2018-07-17T09:32:17.346Z,4.00
2018-07-17T09:34:46.441Z,3.83
2018-07-17T09:37:15.528Z,3.80
2018-07-17T09:39:44.793Z,3.30
2018-07-17T09:42:13.888Z,3.47
2018-07-17T09:44:42.980Z,3.20
2018-07-17T09:47:12.095Z,3.10
2018-07-17T09:49:41.787Z,2.67
2018-07-17T09:52:10.880Z,3.33
2018-07-17T09:54:39.975Z,3.00
2018-07-17T09:57:09.304Z,3.20
2018-07-17T09:59:38.443Z,2.80
2018-07-17T10:02:12.950Z,3.02
2018-07-17T10:04:42.176Z,3.50
2018-07-17T10:07:11.245Z,2.20
2018-07-17T10:09:40.316Z,2.70
2018-07-17T10:12:09.568Z,2.60
2018-07-17T10:14:38.811Z,2.60
2018-07-17T10:17:08.144Z,3.00
2018-07-17T10:19:37.486Z,2.35
2018-07-17T10:22:06.576Z,2.53
2018-07-17T10:24:35.693Z,2.60
2018-07-17T10:27:05.028Z,2.70
2018-07-17T10:29:34.244Z,2.85
2018-07-17T10:32:04.076Z,2.70
2018-07-17T10:34:33.258Z,2.60
2018-07-17T10:37:02.358Z,3.27
2018-07-17T10:39:31.598Z,3.30
2018-07-17T10:42:00.827Z,2.40
2018-07-17T10:44:29.896Z,2.37
2018-07-17T10:47:05.320Z,2.80
2018-07-17T10:49:34.408Z,2.70
2018-07-17T10:52:03.516Z,2.92
2018-07-17T10:54:32.636Z,2.63
2018-07-17T10:57:01.760Z,2.93
2018-07-17T10:59:30.868Z,2.40
2018-07-17T11:01:59.963Z,3.43
2018-07-17T11:04:29.055Z,2.87
2018-07-17T11:06:58.157Z,2.95
2018-07-17T11:09:27.256Z,2.40
2018-07-17T11:11:56.324Z,2.37
2018-07-17T11:14:25.428Z,2.60
2018-07-17T11:16:54.527Z,2.33
2018-07-17T11:19:23.613Z,2.30
2018-07-17T11:21:52.684Z,2.47
2018-07-17T11:24:21.800Z,2.50
2018-07-17T11:26:50.904Z,2.50
2018-07-17T11:29:20.028Z,2.40
2018-07-17T11:31:49.113Z,4.03
2018-07-17T11:34:18.212Z,2.50
2018-07-17T11:36:47.300Z,2.90
2018-07-17T11:39:17.206Z,3.00
2018-07-17T11:41:46.292Z,2.47
2018-07-17T11:44:15.448Z,2.73
2018-07-17T11:46:44.515Z,2.67
2018-07-17T11:49:13.655Z,3.03
2018-07-17T11:51:42.740Z,2.58
2018-07-17T11:54:11.860Z,2.70
2018-07-17T11:56:40.932Z,2.50
2018-07-17T11:59:10.183Z,2.80
2018-07-17T12:01:39.168Z,2.90
2018-07-17T12:04:09.260Z,3.00
2018-07-17T12:06:38.347Z,2.43
2018-07-17T12:09:08.105Z,2.40
2018-07-17T12:11:37.176Z,3.00
2018-07-17T12:14:06.284Z,2.75
2018-07-17T12:16:35.420Z,2.50
2018-07-17T12:19:04.540Z,2.77
2018-07-17T12:21:33.648Z,2.17
2018-07-17T12:24:02.719Z,2.52
2018-07-17T12:26:31.812Z,2.87
2018-07-17T12:29:00.888Z,2.50
2018-07-17T12:31:30.037Z,2.30
2018-07-17T12:33:59.100Z,2.97
2018-07-17T12:36:28.219Z,2.13
2018-07-17T12:38:57.288Z,1.90
2018-07-17T12:41:26.419Z,2.02
2018-07-17T12:43:55.488Z,2.77
2018-07-17T12:46:24.596Z,2.30
2018-07-17T12:48:53.664Z,2.47
2018-07-17T12:51:22.779Z,2.47
2018-07-17T12:53:51.876Z,2.27
2018-07-17T12:56:21.021Z,2.33
2018-07-17T12:58:50.504Z,2.60
2018-07-17T13:01:19.618Z,2.07
2018-07-17T13:03:48.804Z,2.55
2018-07-17T13:06:17.888Z,2.57
2018-07-17T13:08:47.248Z,2.45
2018-07-17T13:11:16.341Z,2.80
2018-07-17T13:13:45.418Z,2.13
2018-07-17T13:16:14.551Z,2.10
2018-07-17T13:18:43.625Z,2.58
2018-07-17T13:21:12.732Z,2.30
2018-07-17T13:23:41.850Z,3.10
2018-07-17T13:26:10.940Z,2.33
2018-07-17T13:28:40.025Z,2.30
2018-07-17T13:31:09.135Z,2.70
2018-07-17T13:33:38.248Z,3.27
2018-07-17T13:36:07.423Z,2.50
2018-07-17T13:38:36.496Z,2.60
2018-07-17T13:41:05.633Z,2.45
2018-07-17T13:43:34.748Z,2.77
2018-07-17T13:46:04.072Z,2.87
2018-07-17T13:48:33.407Z,2.50
2018-07-17T13:51:02.479Z,2.67
2018-07-17T13:53:31.572Z,2.75
2018-07-17T13:56:00.651Z,3.50
2018-07-17T13:58:29.760Z,2.72
2018-07-17T14:00:58.836Z,2.90
2018-07-17T14:03:28.020Z,3.10
2018-07-17T14:05:57.711Z,2.70
2018-07-17T14:08:26.831Z,2.60
2018-07-17T14:10:55.889Z,2.60
2018-07-17T14:13:24.981Z,3.37
2018-07-17T14:15:54.048Z,3.25
2018-07-17T14:18:23.152Z,2.72
2018-07-17T14:20:52.251Z,3.23
2018-07-17T14:23:21.350Z,3.10
2018-07-17T14:25:50.412Z,3.00
2018-07-17T14:28:19.508Z,3.30
2018-07-17T14:30:48.604Z,3.07
2018-07-17T14:33:17.718Z,3.50
2018-07-17T14:35:46.803Z,3.13
2018-07-17T14:38:15.913Z,3.20
2018-07-17T14:40:44.992Z,2.90
2018-07-17T14:43:14.088Z,3.35
2018-07-17T14:45:43.163Z,3.10
2018-07-17T14:48:12.308Z,2.85
2018-07-17T14:50:41.336Z,2.97
2018-07-17T14:53:10.405Z,2.80
2018-07-17T14:55:39.588Z,2.92
2018-07-17T14:58:08.626Z,3.33
2018-07-17T15:00:37.749Z,3.00
2018-07-17T15:03:06.828Z,3.37
2018-07-17T15:05:35.941Z,2.83
2018-07-17T15:08:05.015Z,3.27
2018-07-17T15:10:34.112Z,2.70
2018-07-17T15:13:03.216Z,2.90
2018-07-17T15:15:32.367Z,3.00
2018-07-17T15:18:01.384Z,4.00
2018-07-17T15:20:30.481Z,3.00
2018-07-17T15:22:59.590Z,3.20
2018-07-17T15:25:28.691Z,3.10
2018-07-17T15:27:57.794Z,2.83
2018-07-17T15:30:26.868Z,3.30
2018-07-17T15:32:55.956Z,3.67
2018-07-17T15:35:25.101Z,3.67
2018-07-17T15:37:54.184Z,3.27
2018-07-17T15:40:23.316Z,3.30
2018-07-17T15:42:52.411Z,3.27
2018-07-17T15:45:21.535Z,3.40
2018-07-17T15:47:50.595Z,3.33
2018-07-17T15:50:19.685Z,3.70
2018-07-17T15:52:48.793Z,3.50
2018-07-17T15:55:17.905Z,3.70
2018-07-17T15:57:47.005Z,3.47
2018-07-17T16:00:16.152Z,3.73
2018-07-17T16:02:45.256Z,4.10
2018-07-17T16:05:14.341Z,3.00
2018-07-17T16:07:43.441Z,3.10
2018-07-17T16:10:12.531Z,2.77
2018-07-17T16:12:41.624Z,2.85
2018-07-17T16:15:10.700Z,2.40
2018-07-17T16:17:39.831Z,2.72
2018-07-17T16:20:09.269Z,2.93
2018-07-17T16:22:38.327Z,2.70
2018-07-17T16:25:07.646Z,2.47
2018-07-17T16:27:37.392Z,2.70
2018-07-17T16:30:07.271Z,3.00
2018-07-17T16:32:36.379Z,2.53
2018-07-17T16:35:05.483Z,2.70
2018-07-17T16:37:34.576Z,2.73
2018-07-17T16:40:03.717Z,3.37
2018-07-17T16:42:32.835Z,2.60
2018-07-17T16:45:01.913Z,2.60
2018-07-17T16:47:31.020Z,3.20
2018-07-17T16:50:00.092Z,2.67
2018-07-17T16:52:29.357Z,3.75
2018-07-17T16:54:58.461Z,2.37
2018-07-17T16:57:27.548Z,2.70
2018-07-17T16:59:56.668Z,2.77
2018-07-17T17:02:25.800Z,2.62
2018-07-17T17:04:54.932Z,3.00
2018-07-17T17:07:24.028Z,3.00
2018-07-17T17:09:53.264Z,3.30
2018-07-17T17:12:22.332Z,2.92
2018-07-17T17:14:51.451Z,3.15
2018-07-17T17:17:20.512Z,2.47
2018-07-17T17:19:49.616Z,3.40
2018-07-17T17:22:18.688Z,2.50
2018-07-17T17:24:47.813Z,3.17
2018-07-17T17:27:16.888Z,3.07
2018-07-17T17:29:45.981Z,3.30
2018-07-17T17:32:15.084Z,3.00
2018-07-17T17:34:44.184Z,3.00
2018-07-17T17:37:13.303Z,2.83
2018-07-17T17:39:42.444Z,3.63
2018-07-17T17:42:11.495Z,3.13
2018-07-17T17:44:40.584Z,3.50
2018-07-17T17:47:09.668Z,3.43
2018-07-17T17:49:38.880Z,2.83
2018-07-17T17:52:08.000Z,2.83
2018-07-17T17:54:37.124Z,3.17
2018-07-17T17:57:06.247Z,2.90
2018-07-17T17:59:35.370Z,3.53
2018-07-17T18:02:04.506Z,2.73
2018-07-17T18:04:33.798Z,2.60
2018-07-17T18:07:02.891Z,2.90
2018-07-17T18:09:31.983Z,2.90
2018-07-17T18:12:01.124Z,3.20
2018-07-17T18:14:30.333Z,3.58
2018-07-17T18:16:59.471Z,2.73
2018-07-17T18:19:28.540Z,3.62
2018-07-17T18:21:57.661Z,2.83
2018-07-17T18:24:26.795Z,3.02
2018-07-17T18:26:56.063Z,3.17
2018-07-17T18:29:25.106Z,2.50
2018-07-17T18:31:54.221Z,3.20
2018-07-17T18:34:23.317Z,3.70
2018-07-17T18:36:52.416Z,3.37
2018-07-17T18:39:21.540Z,3.33
2018-07-17T18:41:50.684Z,3.92
2018-07-17T18:44:19.740Z,4.10
2018-07-17T18:46:48.871Z,3.12
2018-07-17T18:49:17.980Z,3.20
2018-07-17T18:51:47.849Z,3.70
2018-07-17T18:54:16.916Z,3.80
2018-07-17T18:56:46.025Z,3.40
2018-07-17T18:59:15.115Z,3.83
2018-07-17T19:01:44.216Z,4.10
2018-07-17T19:04:13.337Z,3.50
2018-07-17T19:06:42.413Z,3.50
2018-07-17T19:09:11.524Z,4.42
2018-07-17T19:11:40.760Z,3.90
2018-07-17T19:14:09.832Z,5.10
2018-07-17T19:16:39.787Z,3.83
2018-07-17T19:19:08.859Z,4.77
2018-07-17T19:21:37.972Z,4.90
2018-07-17T19:24:07.065Z,4.90
2018-07-17T19:26:36.148Z,3.95
2018-07-17T19:29:05.282Z,4.67
2018-07-17T19:31:34.320Z,4.80
2018-07-17T19:34:03.428Z,4.20
2018-07-17T19:36:32.555Z,4.28
2018-07-17T19:39:01.606Z,3.87
2018-07-17T19:41:30.704Z,4.30
2018-07-17T19:43:59.823Z,4.13
2018-07-17T19:46:28.896Z,4.00
2018-07-17T19:48:58.024Z,4.57
2018-07-17T19:51:27.135Z,4.20
2018-07-17T19:53:56.220Z,4.73
2018-07-17T19:56:25.485Z,3.80
2018-07-17T19:58:54.609Z,4.65
2018-07-17T20:01:23.716Z,4.87
2018-07-17T20:03:52.820Z,4.27
2018-07-17T20:06:21.884Z,4.50
2018-07-17T20:08:51.005Z,5.07
2018-07-17T20:11:20.088Z,4.05
2018-07-17T20:13:49.206Z,4.90
2018-07-17T20:16:18.290Z,5.08
2018-07-17T20:18:47.387Z,4.43
2018-07-17T20:21:16.476Z,4.47
2018-07-17T20:23:45.565Z,4.60
2018-07-17T20:26:14.623Z,5.20
2018-07-17T20:28:43.724Z,5.50
2018-07-17T20:31:12.843Z,4.20
2018-07-17T20:33:41.966Z,4.10
2018-07-17T20:36:11.031Z,4.57
2018-07-17T20:38:40.100Z,4.47
2018-07-17T20:41:09.196Z,4.10
2018-07-17T20:43:38.285Z,4.25
2018-07-17T20:46:07.400Z,4.30
2018-07-17T20:48:36.460Z,4.97
2018-07-17T20:51:05.563Z,4.30
2018-07-17T20:53:35.271Z,5.37
2018-07-17T20:56:04.384Z,4.23
2018-07-17T20:58:33.550Z,4.93
2018-07-17T21:01:02.619Z,4.77
2018-07-17T21:03:32.000Z,4.60
2018-07-17T21:06:01.144Z,4.40
2018-07-17T21:08:30.213Z,6.10
2018-07-17T21:10:59.451Z,4.90
2018-07-17T21:13:28.508Z,4.93
2018-07-17T21:15:57.615Z,4.70
2018-07-17T21:18:26.672Z,5.27
2018-07-17T21:20:55.795Z,5.37
2018-07-17T21:23:24.883Z,5.20
2018-07-17T21:25:53.975Z,5.30
2018-07-17T21:28:23.176Z,5.67
2018-07-17T21:30:52.288Z,5.23
2018-07-17T21:33:21.387Z,5.10
2018-07-17T21:35:50.462Z,4.60
2018-07-17T21:38:19.592Z,5.23
2018-07-17T21:40:48.688Z,4.40
2018-07-17T21:43:17.964Z,4.20
2018-07-17T21:45:47.039Z,4.80
2018-07-17T21:48:16.156Z,4.97
2018-07-17T21:50:45.236Z,5.30
2018-07-17T21:53:14.378Z,4.90
2018-07-17T21:55:43.537Z,5.30
2018-07-17T21:58:12.685Z,5.10
2018-07-17T22:00:41.781Z,4.70
2018-07-17T22:03:10.916Z,5.13
2018-07-17T22:05:40.039Z,5.27
2018-07-17T22:08:09.065Z,4.97
2018-07-17T22:10:38.140Z,5.83
2018-07-17T22:13:07.248Z,5.33
2018-07-17T22:15:36.319Z,5.60
2018-07-17T22:18:05.674Z,5.50
2018-07-17T22:20:34.746Z,5.33
2018-07-17T22:23:03.887Z,5.43
2018-07-17T22:25:32.980Z,6.10
2018-07-17T22:28:02.152Z,6.13
2018-07-17T22:30:31.173Z,5.87
2018-07-17T22:33:00.279Z,6.83
2018-07-17T22:35:29.475Z,6.87
2018-07-17T22:37:58.668Z,6.10
2018-07-17T22:40:28.033Z,6.30
2018-07-17T22:42:57.176Z,5.63
2018-07-17T22:45:26.524Z,6.10
2018-07-17T22:47:55.701Z,6.30
2018-07-17T22:50:24.828Z,7.20
2018-07-17T22:52:54.099Z,6.57
2018-07-17T22:55:23.223Z,6.90
2018-07-17T22:57:52.431Z,7.73
2018-07-17T23:00:21.584Z,6.60
2018-07-17T23:02:50.720Z,6.00
2018-07-17T23:05:19.837Z,8.37
2018-07-17T23:07:48.939Z,7.17
2018-07-17T23:10:18.028Z,6.67
2018-07-17T23:12:47.106Z,8.33
2018-07-17T23:15:16.338Z,9.23
2018-07-17T23:17:45.539Z,8.30
2018-07-17T23:20:14.691Z,9.33
2018-07-17T23:22:57.039Z,9.20
2018-07-17T23:25:27.365Z,9.33
2018-07-17T23:27:57.152Z,8.97
2018-07-17T23:30:26.277Z,9.47
2018-07-17T23:32:55.407Z,10.10
2018-07-17T23:35:25.211Z,10.80
2018-07-17T23:37:54.601Z,11.07
2018-07-17T23:40:23.872Z,13.10
2018-07-17T23:42:52.980Z,10.77
2018-07-17T23:45:22.096Z,12.30
2018-07-17T23:47:51.199Z,11.77
2018-07-17T23:50:20.288Z,11.40
2018-07-17T23:52:49.397Z,13.40
2018-07-17T23:55:18.492Z,14.23
2018-07-17T23:57:47.724Z,14.00
